Time;durP1;ratioP1;P1;durP2;ratioP2;P2;SDS_P1;SDS_P2;PMS_P1;PMS_P2;Temp;Humidity;BMP_temperature;BMP_pressure;BME280_temperature;BME280_humidity;BME280_pressure;Samples;Min_cycle;Max_cycle;Signal;HPM_P1;HPM_P2
2022/09/30 00:00:59;;;;;;;5.45;2.45;;;9.90;99.90;;;;;;5107653;27;36286;-57
2022/09/30 00:03:27;;;;;;;7.72;2.58;;;9.90;99.90;;;;;;5108488;27;36229;-57
2022/09/30 00:05:58;;;;;;;4.38;2.70;;;9.90;99.90;;;;;;5108233;27;39189;-57
2022/09/30 00:08:25;;;;;;;6.75;2.50;;;10.00;99.90;;;;;;5109475;27;37515;-57
2022/09/30 00:11:03;;;;;;;5.25;2.60;;;10.00;99.90;;;;;;5108451;27;36797;-57
2022/09/30 00:13:31;;;;;;;4.10;2.28;;;10.00;99.90;;;;;;5108130;27;36353;-57
2022/09/30 00:15:59;;;;;;;5.38;2.30;;;10.00;99.90;;;;;;5109384;27;38420;-57
2022/09/30 00:18:27;;;;;;;3.75;2.00;;;10.00;99.90;;;;;;5108212;27;35795;-57
2022/09/30 00:20:54;;;;;;;5.15;2.30;;;10.00;99.90;;;;;;5107349;27;36074;-57
2022/09/30 00:23:23;;;;;;;5.57;2.20;;;10.00;99.90;;;;;;5107527;27;37530;-57
2022/09/30 00:25:51;;;;;;;3.97;2.28;;;10.00;99.90;;;;;;5107974;27;37947;-57
2022/09/30 00:28:19;;;;;;;4.60;2.28;;;10.00;99.90;;;;;;5108850;27;38038;-57
2022/09/30 00:30:47;;;;;;;3.88;1.95;;;10.00;99.90;;;;;;5108615;27;37592;-57
2022/09/30 00:33:14;;;;;;;4.60;2.08;;;10.00;99.90;;;;;;5109405;27;37281;-57
2022/09/30 00:35:41;;;;;;;3.47;2.10;;;9.90;99.90;;;;;;5108988;27;37502;-57
2022/09/30 00:38:09;;;;;;;4.40;2.22;;;9.90;99.90;;;;;;5108665;27;36179;-57
2022/09/30 00:40:38;;;;;;;9.88;3.17;;;9.90;99.90;;;;;;5107803;27;36572;-57
2022/09/30 00:43:13;;;;;;;3.00;1.60;;;9.80;99.90;;;;;;5108077;27;36467;-57
2022/09/30 00:45:49;;;;;;;3.08;1.67;;;9.80;99.90;;;;;;5109636;27;37711;-57
2022/09/30 00:48:19;;;;;;;4.22;2.13;;;9.80;99.90;;;;;;5108887;27;37347;-57
2022/09/30 00:50:54;;;;;;;4.38;2.10;;;9.70;99.90;;;;;;5110040;27;38149;-57
2022/09/30 00:53:28;;;;;;;4.75;2.08;;;9.70;99.90;;;;;;5107815;27;38469;-57
2022/09/30 00:56:00;;;;;;;3.25;1.83;;;9.70;99.90;;;;;;5107576;27;36211;-57
2022/09/30 00:58:35;;;;;;;4.07;2.10;;;9.70;99.90;;;;;;5108094;27;20133;-57
2022/09/30 01:01:04;;;;;;;3.95;1.90;;;9.70;99.90;;;;;;5106256;27;37691;-57
2022/09/30 01:03:35;;;;;;;3.90;1.00;;;9.60;99.90;;;;;;5104996;27;36929;-57
2022/09/30 01:06:03;;;;;;;4.15;0.98;;;9.60;99.90;;;;;;5108000;27;37601;-57
2022/09/30 01:08:32;;;;;;;4.75;0.95;;;9.50;99.90;;;;;;5107879;27;37206;-57
2022/09/30 01:10:59;;;;;;;3.60;1.00;;;9.40;99.90;;;;;;5108435;27;37479;-57
2022/09/30 01:13:30;;;;;;;1.92;1.17;;;9.40;99.90;;;;;;5107938;27;36538;-57
2022/09/30 01:16:14;;;;;;;2.60;1.50;;;9.40;99.90;;;;;;5107123;27;38053;-57
2022/09/30 01:18:58;;;;;;;3.00;1.80;;;9.40;99.90;;;;;;5108211;27;38891;-57
2022/09/30 01:21:59;;;;;;;3.88;1.70;;;9.40;99.90;;;;;;5108716;27;35277;-57
2022/09/30 01:24:58;;;;;;;5.82;2.08;;;9.40;99.90;;;;;;5107253;27;38136;-57
2022/09/30 01:27:51;;;;;;;5.20;1.70;;;9.50;99.90;;;;;;5108528;27;37700;-57
2022/09/30 01:30:21;;;;;;;2.83;1.60;;;9.50;99.90;;;;;;5104459;27;37679;-57
2022/09/30 01:33:08;;;;;;;4.03;1.95;;;9.50;99.90;;;;;;5106515;27;36537;-57
2022/09/30 01:35:50;;;;;;;3.70;2.10;;;9.60;99.90;;;;;;5107193;27;39096;-57
2022/09/30 01:38:27;;;;;;;3.95;1.95;;;9.60;99.90;;;;;;5106234;27;40484;-57
2022/09/30 01:41:03;;;;;;;4.90;2.05;;;9.50;99.90;;;;;;5109044;27;38058;-57
2022/09/30 01:43:40;;;;;;;3.53;1.98;;;9.60;99.90;;;;;;5106848;27;37412;-57
2022/09/30 01:46:21;;;;;;;4.55;2.55;;;9.50;99.90;;;;;;5106122;27;36465;-57
2022/09/30 01:48:59;;;;;;;4.30;2.08;;;9.50;99.90;;;;;;5106974;27;37631;-57
2022/09/30 01:51:32;;;;;;;2.95;1.33;;;9.50;99.90;;;;;;5106630;27;37497;-57
2022/09/30 01:54:03;;;;;;;2.42;1.40;;;9.50;99.90;;;;;;5106778;27;36224;-57
2022/09/30 01:56:36;;;;;;;4.50;1.85;;;9.40;99.90;;;;;;5106971;27;38416;-57
2022/09/30 01:59:07;;;;;;;3.90;1.90;;;9.30;99.90;;;;;;5106971;27;36561;-57
2022/09/30 02:01:39;;;;;;;4.57;2.03;;;9.40;99.90;;;;;;5107719;27;36288;-56
2022/09/30 02:04:14;;;;;;;3.20;1.70;;;9.40;99.90;;;;;;5106482;27;37168;-56
2022/09/30 02:06:47;;;;;;;3.58;1.80;;;9.40;99.90;;;;;;5107258;27;37539;-57
2022/09/30 02:09:21;;;;;;;5.38;2.10;;;9.30;99.90;;;;;;5107724;27;38111;-57
2022/09/30 02:11:48;;;;;;;3.65;1.83;;;9.30;99.90;;;;;;5108243;27;39635;-57
2022/09/30 02:14:20;;;;;;;6.40;1.50;;;9.30;99.90;;;;;;5108444;27;37405;-57
2022/09/30 02:16:50;;;;;;;48.08;3.72;;;9.20;99.90;;;;;;5107270;27;37467;-57
2022/09/30 02:19:25;;;;;;;22.30;2.40;;;9.10;99.90;;;;;;5106717;27;37660;-57
2022/09/30 02:21:57;;;;;;;4.43;1.02;;;9.00;99.90;;;;;;5107497;27;36872;-57
2022/09/30 02:24:27;;;;;;;3.50;1.58;;;8.90;99.90;;;;;;5107951;27;37072;-57
2022/09/30 02:26:58;;;;;;;14.93;2.03;;;8.90;99.90;;;;;;5108873;27;38130;-57
2022/09/30 02:29:29;;;;;;;10.00;1.70;;;8.90;99.90;;;;;;5107764;27;38851;-57
2022/09/30 02:32:05;;;;;;;53.92;2.85;;;8.90;99.90;;;;;;5107100;27;38634;-57
2022/09/30 02:34:38;;;;;;;1.67;1.00;;;8.80;99.90;;;;;;5104847;27;37226;-57
2022/09/30 02:37:12;;;;;;;1.58;1.05;;;8.80;99.90;;;;;;5106550;27;36536;-57
2022/09/30 02:39:46;;;;;;;2.00;1.10;;;8.80;99.90;;;;;;5107645;27;38112;-57
2022/09/30 02:42:19;;;;;;;2.33;1.27;;;8.80;99.90;;;;;;5107610;27;38157;-57
2022/09/30 02:44:47;;;;;;;3.95;1.65;;;8.80;99.90;;;;;;5107890;27;36411;-57
2022/09/30 02:47:25;;;;;;;2.47;1.20;;;8.80;99.90;;;;;;5107504;27;38125;-57
2022/09/30 02:49:59;;;;;;;2.78;1.17;;;8.80;99.90;;;;;;5106450;27;37127;-57
2022/09/30 02:52:34;;;;;;;8.52;1.30;;;8.80;99.90;;;;;;5107675;27;37131;-57
2022/09/30 02:55:14;;;;;;;5.38;1.30;;;8.80;99.90;;;;;;5106506;27;37540;-57
2022/09/30 02:57:52;;;;;;;9.85;1.67;;;8.70;99.90;;;;;;5106997;27;37342;-57
2022/09/30 03:00:19;;;;;;;5.38;1.45;;;8.80;99.90;;;;;;5106784;27;36691;-57
2022/09/30 03:02:47;;;;;;;16.55;1.88;;;8.80;99.90;;;;;;5106678;27;37063;-57
2022/09/30 03:05:16;;;;;;;6.55;1.60;;;8.80;99.90;;;;;;5106319;27;36732;-57
2022/09/30 03:07:43;;;;;;;11.10;1.27;;;8.80;99.90;;;;;;5109751;27;38178;-57
2022/09/30 03:10:15;;;;;;;5.20;1.40;;;8.80;99.90;;;;;;5108666;27;38534;-57
2022/09/30 03:13:03;;;;;;;1.25;0.85;;;8.70;99.90;;;;;;5108828;27;37382;-57
2022/09/30 03:15:42;;;;;;;3.22;1.45;;;8.70;99.90;;;;;;5110014;27;36661;-57
2022/09/30 03:18:30;;;;;;;2.00;1.30;;;8.70;99.90;;;;;;5108911;27;37734;-56
2022/09/30 03:21:09;;;;;;;3.95;1.95;;;8.70;99.90;;;;;;5110123;27;38567;-57
2022/09/30 03:23:56;;;;;;;5.43;1.95;;;8.70;99.90;;;;;;5110664;27;37405;-57
2022/09/30 03:26:36;;;;;;;3.30;1.80;;;8.80;99.90;;;;;;5111078;27;36516;-57
2022/09/30 03:29:10;;;;;;;3.42;1.80;;;8.90;99.90;;;;;;5110788;27;38196;-57
2022/09/30 03:31:46;;;;;;;3.78;2.15;;;9.00;99.90;;;;;;5110766;27;36433;-57
2022/09/30 03:34:20;;;;;;;3.85;2.13;;;9.00;99.90;;;;;;5109857;27;39140;-57
2022/09/30 03:37:01;;;;;;;4.35;1.85;;;9.00;99.90;;;;;;5110903;27;36467;-57
2022/09/30 03:39:37;;;;;;;3.65;1.90;;;9.00;99.90;;;;;;5110718;27;38019;-57
2022/09/30 03:42:13;;;;;;;3.75;2.08;;;9.00;99.90;;;;;;5110318;27;37327;-56
2022/09/30 03:44:46;;;;;;;9.18;1.83;;;9.00;99.90;;;;;;5111210;27;37359;-57
2022/09/30 03:47:16;;;;;;;3.47;1.88;;;9.00;99.90;;;;;;5111117;27;36773;-56
2022/09/30 03:49:48;;;;;;;3.80;1.95;;;9.00;99.90;;;;;;5109567;27;38507;-57
2022/09/30 03:52:17;;;;;;;5.22;1.80;;;9.00;99.90;;;;;;5109655;27;37918;-57
2022/09/30 03:54:47;;;;;;;3.67;2.10;;;9.00;99.90;;;;;;5110154;27;39941;-57
2022/09/30 03:57:15;;;;;;;4.32;2.35;;;9.00;99.90;;;;;;5107677;27;37091;-57
2022/09/30 03:59:42;;;;;;;4.30;2.50;;;9.10;99.90;;;;;;5109930;27;37381;-57
2022/09/30 04:02:12;;;;;;;3.42;2.03;;;9.10;99.90;;;;;;5109004;27;37447;-57
2022/09/30 04:04:40;;;;;;;5.28;2.17;;;9.00;99.90;;;;;;5109792;27;37128;-57
2022/09/30 04:07:09;;;;;;;3.47;2.00;;;9.00;99.90;;;;;;5110692;27;35631;-57
2022/09/30 04:09:38;;;;;;;3.88;2.20;;;9.00;99.90;;;;;;5109853;27;37202;-57
2022/09/30 04:12:06;;;;;;;3.92;2.22;;;9.00;99.90;;;;;;5109296;27;36533;-57
2022/09/30 04:14:34;;;;;;;3.15;2.00;;;9.00;99.90;;;;;;5109047;27;37638;-57
2022/09/30 04:17:01;;;;;;;3.88;2.30;;;8.90;99.90;;;;;;5108962;27;35987;-57
2022/09/30 04:19:28;;;;;;;4.00;2.30;;;8.90;99.90;;;;;;5107184;27;38929;-57
2022/09/30 04:21:56;;;;;;;5.82;2.28;;;8.90;99.90;;;;;;5109905;27;37524;-57
2022/09/30 04:24:24;;;;;;;3.58;2.08;;;9.00;99.90;;;;;;5109308;27;37310;-57
2022/09/30 04:26:53;;;;;;;5.03;2.63;;;8.90;99.90;;;;;;5109890;27;36676;-57
2022/09/30 04:29:20;;;;;;;4.63;2.38;;;9.00;99.90;;;;;;5109884;27;37667;-57
2022/09/30 04:31:48;;;;;;;5.65;2.15;;;9.00;99.90;;;;;;5108926;27;37618;-57
2022/09/30 04:34:15;;;;;;;4.00;2.33;;;9.00;99.90;;;;;;5107446;27;38910;-57
2022/09/30 04:36:43;;;;;;;4.72;2.20;;;9.00;99.90;;;;;;5105809;27;36535;-57
2022/09/30 04:39:10;;;;;;;6.45;2.28;;;9.00;99.90;;;;;;5106033;27;37739;-57
2022/09/30 04:41:37;;;;;;;4.68;2.00;;;9.00;99.90;;;;;;5107284;27;36487;-57
2022/09/30 04:44:06;;;;;;;3.55;1.80;;;9.00;99.90;;;;;;5108022;27;37641;-57
2022/09/30 04:46:35;;;;;;;4.22;2.03;;;9.00;99.90;;;;;;5109172;27;36490;-57
2022/09/30 04:49:03;;;;;;;8.93;2.20;;;8.90;99.90;;;;;;5108527;27;36382;-57
2022/09/30 04:51:30;;;;;;;4.07;1.85;;;8.90;99.90;;;;;;5108194;27;38830;-57
2022/09/30 04:53:58;;;;;;;7.30;1.88;;;8.90;99.90;;;;;;5106226;27;37299;-57
2022/09/30 04:56:26;;;;;;;26.45;2.80;;;8.90;99.90;;;;;;5107836;27;35271;-57
2022/09/30 04:58:53;;;;;;;3.95;1.85;;;8.70;99.90;;;;;;5106018;27;40344;-57
2022/09/30 05:01:22;;;;;;;3.90;2.13;;;8.90;99.90;;;;;;5107694;27;39073;-57
2022/09/30 05:03:49;;;;;;;5.80;1.98;;;8.80;99.90;;;;;;5108646;27;37512;-57
2022/09/30 05:06:17;;;;;;;32.83;2.95;;;8.80;99.90;;;;;;5107818;27;37144;-56
2022/09/30 05:08:44;;;;;;;8.07;1.92;;;8.70;99.90;;;;;;5107317;27;36101;-57
2022/09/30 05:11:16;;;;;;;25.17;2.80;;;8.70;99.90;;;;;;5108872;27;37599;-57
2022/09/30 05:13:44;;;;;;;13.57;2.08;;;8.70;99.90;;;;;;5108704;27;37433;-57
2022/09/30 05:16:12;;;;;;;19.10;2.22;;;8.60;99.90;;;;;;5107345;27;35457;-57
2022/09/30 05:18:44;;;;;;;7.15;2.00;;;8.60;99.90;;;;;;5108864;27;36433;-57
2022/09/30 05:21:13;;;;;;;9.85;1.85;;;8.50;99.90;;;;;;5108350;27;38134;-57
2022/09/30 05:23:40;;;;;;;4.88;1.98;;;8.40;99.90;;;;;;5105401;27;37358;-57
2022/09/30 05:26:08;;;;;;;6.63;2.30;;;8.40;99.90;;;;;;5107306;27;37833;-57
2022/09/30 05:28:35;;;;;;;4.85;2.35;;;8.40;99.90;;;;;;5105282;27;36914;-57
2022/09/30 05:31:05;;;;;;;4.47;1.88;;;8.40;99.90;;;;;;5105905;27;36768;-57
2022/09/30 05:33:33;;;;;;;4.10;1.63;;;8.40;99.90;;;;;;5105408;27;37596;-57
2022/09/30 05:36:04;;;;;;;4.90;1.67;;;8.40;99.90;;;;;;5105776;27;36439;-57
2022/09/30 05:38:31;;;;;;;3.78;1.88;;;8.30;99.90;;;;;;5106464;27;37489;-57
2022/09/30 05:40:58;;;;;;;3.05;1.83;;;8.30;99.90;;;;;;5107845;27;36378;-57
2022/09/30 05:43:26;;;;;;;3.25;1.55;;;8.30;99.90;;;;;;5105786;27;38741;-57
2022/09/30 05:45:55;;;;;;;3.03;1.63;;;8.30;99.90;;;;;;5106931;27;37869;-56
2022/09/30 05:48:23;;;;;;;3.22;1.65;;;8.20;99.90;;;;;;5107425;27;39272;-57
2022/09/30 05:50:54;;;;;;;3.42;1.65;;;8.20;99.90;;;;;;5106508;27;37573;-57
2022/09/30 05:53:23;;;;;;;3.85;1.88;;;8.20;99.90;;;;;;5105439;27;37925;-56
2022/09/30 05:55:50;;;;;;;4.68;2.50;;;8.20;99.90;;;;;;5105691;27;36448;-57
2022/09/30 05:58:18;;;;;;;6.32;2.65;;;8.20;99.90;;;;;;5106623;27;36409;-57
2022/09/30 06:00:48;;;;;;;5.10;2.70;;;8.20;99.90;;;;;;5105575;27;38229;-57
2022/09/30 06:03:16;;;;;;;7.13;2.55;;;8.30;99.90;;;;;;5103975;27;38792;-56
2022/09/30 06:05:44;;;;;;;5.50;2.70;;;8.30;99.90;;;;;;5106467;27;36383;-57
2022/09/30 06:08:12;;;;;;;14.32;1.90;;;8.40;99.90;;;;;;5106733;27;37443;-57
2022/09/30 06:10:42;;;;;;;2.80;1.20;;;8.40;99.90;;;;;;5106464;27;38209;-57
2022/09/30 06:13:10;;;;;;;2.95;1.25;;;8.40;99.90;;;;;;5107145;27;37303;-57
2022/09/30 06:15:38;;;;;;;5.18;1.27;;;8.40;99.90;;;;;;5108119;27;36959;-57
2022/09/30 06:18:05;;;;;;;2.72;1.50;;;8.30;99.90;;;;;;5108655;27;38785;-57
2022/09/30 06:20:33;;;;;;;2.97;1.73;;;8.40;99.90;;;;;;5103608;27;38494;-57
2022/09/30 06:23:01;;;;;;;5.30;2.40;;;8.40;99.90;;;;;;5108311;27;36423;-57
2022/09/30 06:25:28;;;;;;;4.22;2.40;;;8.50;99.90;;;;;;5107463;27;37574;-57
2022/09/30 06:27:57;;;;;;;6.20;3.42;;;8.60;99.90;;;;;;5103464;27;37749;-57
2022/09/30 06:30:25;;;;;;;5.57;3.17;;;8.70;99.90;;;;;;5107969;27;37405;-57
2022/09/30 06:32:56;;;;;;;5.45;2.97;;;8.70;99.90;;;;;;5106078;27;37239;-57
2022/09/30 06:35:27;;;;;;;5.38;3.05;;;8.80;99.90;;;;;;5106523;27;36509;-57
2022/09/30 06:37:54;;;;;;;5.28;3.08;;;8.90;99.90;;;;;;5107319;27;38220;-57
2022/09/30 06:40:22;;;;;;;5.00;3.20;;;9.00;99.90;;;;;;5106067;27;37881;-57
2022/09/30 06:42:49;;;;;;;8.38;3.50;;;9.00;99.90;;;;;;5109417;27;36586;-57
2022/09/30 06:45:20;;;;;;;6.57;3.13;;;9.10;99.90;;;;;;5109253;27;37088;-57
2022/09/30 06:47:50;;;;;;;5.88;3.20;;;9.10;99.90;;;;;;5109774;27;39231;-57
2022/09/30 06:50:18;;;;;;;5.90;3.33;;;9.20;99.90;;;;;;5108759;27;36943;-57
2022/09/30 06:52:47;;;;;;;6.30;3.15;;;9.20;99.90;;;;;;5107748;27;37970;-57
2022/09/30 06:55:14;;;;;;;6.60;3.20;;;9.30;99.90;;;;;;5108265;27;37336;-57
2022/09/30 06:57:42;;;;;;;4.93;2.78;;;9.30;99.90;;;;;;5110144;27;38388;-57
2022/09/30 07:00:11;;;;;;;5.15;2.88;;;9.30;99.90;;;;;;5110225;27;37882;-56
2022/09/30 07:02:39;;;;;;;3.75;2.25;;;9.40;99.90;;;;;;5109123;27;37570;-57
2022/09/30 07:05:08;;;;;;;5.07;2.40;;;9.40;99.90;;;;;;5109027;27;36562;-56
2022/09/30 07:07:35;;;;;;;5.55;2.70;;;9.50;99.90;;;;;;5111519;27;37840;-57
2022/09/30 07:10:03;;;;;;;5.20;2.38;;;9.50;99.90;;;;;;5109911;27;37858;-57
2022/09/30 07:12:31;;;;;;;4.38;2.30;;;9.60;99.90;;;;;;5110151;27;38403;-57
2022/09/30 07:14:59;;;;;;;3.97;2.25;;;9.70;99.90;;;;;;5111173;27;36518;-56
2022/09/30 07:17:26;;;;;;;4.93;2.60;;;9.70;99.90;;;;;;5110109;27;37657;-57
2022/09/30 07:19:55;;;;;;;4.78;3.00;;;9.80;99.90;;;;;;5110026;27;38296;-57
2022/09/30 07:22:30;;;;;;;6.43;3.00;;;9.80;99.90;;;;;;5110507;27;37371;-57
2022/09/30 07:25:00;;;;;;;7.13;3.40;;;9.80;99.90;;;;;;5109062;27;37717;-57
2022/09/30 07:27:28;;;;;;;6.00;3.35;;;9.90;99.90;;;;;;5107801;27;36305;-57
2022/09/30 07:29:56;;;;;;;6.22;3.00;;;9.90;99.90;;;;;;5109287;27;37212;-57
2022/09/30 07:32:23;;;;;;;8.20;3.85;;;10.00;99.90;;;;;;5107832;27;37625;-57
2022/09/30 07:34:51;;;;;;;6.28;3.63;;;10.00;99.90;;;;;;5108408;27;36636;-57
2022/09/30 07:37:20;;;;;;;6.28;3.58;;;10.10;99.90;;;;;;5106652;27;36362;-57
2022/09/30 07:39:48;;;;;;;5.57;3.10;;;10.20;99.90;;;;;;5107284;27;37023;-57
2022/09/30 07:42:19;;;;;;;7.72;3.95;;;10.20;99.90;;;;;;5109372;27;38265;-57
2022/09/30 07:44:46;;;;;;;8.13;3.63;;;10.30;99.90;;;;;;5109486;27;39238;-57
2022/09/30 07:47:15;;;;;;;6.45;3.67;;;10.30;99.90;;;;;;5109286;27;37409;-57
2022/09/30 07:49:43;;;;;;;6.05;3.67;;;10.40;99.90;;;;;;5108563;27;37497;-57
2022/09/30 07:52:11;;;;;;;7.03;3.80;;;10.40;99.90;;;;;;5109425;27;38127;-57
2022/09/30 07:54:42;;;;;;;6.57;3.63;;;10.50;99.90;;;;;;5109464;27;36447;-57
2022/09/30 07:57:09;;;;;;;6.65;3.47;;;10.50;99.90;;;;;;5108458;27;36560;-57
2022/09/30 07:59:39;;;;;;;6.35;3.97;;;10.60;99.90;;;;;;5110042;27;37637;-57
2022/09/30 08:02:10;;;;;;;7.00;3.78;;;10.70;99.90;;;;;;5109861;27;38800;-57
2022/09/30 08:04:38;;;;;;;6.85;3.95;;;10.70;99.90;;;;;;5110182;27;37505;-57
2022/09/30 08:07:05;;;;;;;7.45;5.07;;;10.80;99.90;;;;;;5110663;27;37304;-57
2022/09/30 08:09:33;;;;;;;11.38;5.25;;;10.80;99.90;;;;;;5108400;27;37629;-57
2022/09/30 08:12:04;;;;;;;8.23;4.90;;;10.90;99.90;;;;;;5109990;27;38737;-57
2022/09/30 08:14:31;;;;;;;6.65;4.13;;;11.00;99.90;;;;;;5109902;27;35390;-57
2022/09/30 08:16:59;;;;;;;7.47;4.97;;;11.00;99.90;;;;;;5110445;27;37657;-57
2022/09/30 08:19:28;;;;;;;7.88;4.78;;;11.10;99.90;;;;;;5110420;27;37753;-57
2022/09/30 08:21:56;;;;;;;7.22;4.20;;;11.20;99.90;;;;;;5109749;27;37830;-57
2022/09/30 08:24:23;;;;;;;7.53;4.40;;;11.20;99.90;;;;;;5108043;27;38003;-57
2022/09/30 08:26:51;;;;;;;7.68;4.40;;;11.30;99.90;;;;;;5110201;27;38198;-56
2022/09/30 08:29:20;;;;;;;9.90;5.10;;;11.40;99.90;;;;;;5109929;27;38419;-57
2022/09/30 08:31:48;;;;;;;7.57;4.50;;;11.40;99.90;;;;;;5108646;27;36153;-57
2022/09/30 08:34:16;;;;;;;7.03;4.18;;;11.50;99.90;;;;;;5109423;27;36538;-57
2022/09/30 08:36:45;;;;;;;7.53;4.68;;;11.60;99.90;;;;;;5108672;27;37911;-57
2022/09/30 08:39:12;;;;;;;8.77;4.97;;;11.70;99.90;;;;;;5107124;27;39457;-57
2022/09/30 08:42:00;;;;;;;9.75;5.20;;;11.70;99.90;;;;;;5108898;27;38159;-57
2022/09/30 08:44:42;;;;;;;8.20;4.88;;;11.80;99.90;;;;;;5109076;27;35494;-57
2022/09/30 08:47:36;;;;;;;8.77;5.03;;;11.90;99.90;;;;;;5109010;27;37659;-57
2022/09/30 08:50:12;;;;;;;10.43;5.07;;;12.00;99.90;;;;;;5108879;27;39305;-57
2022/09/30 08:52:42;;;;;;;8.10;5.05;;;12.10;99.90;;;;;;5109221;27;36504;-57
2022/09/30 08:55:18;;;;;;;10.48;5.68;;;12.20;99.90;;;;;;5108328;27;36529;-57
2022/09/30 08:57:46;;;;;;;7.80;4.78;;;12.20;99.90;;;;;;5109461;27;36390;-57
2022/09/30 09:00:17;;;;;;;7.90;5.20;;;12.30;99.90;;;;;;5109896;27;38293;-57
2022/09/30 09:02:48;;;;;;;10.85;5.55;;;12.40;99.90;;;;;;5108360;27;38844;-58
2022/09/30 09:05:25;;;;;;;11.98;6.05;;;12.50;99.90;;;;;;5104701;27;37005;-57
2022/09/30 09:08:01;;;;;;;8.65;5.93;;;12.50;99.90;;;;;;5107480;27;38768;-57
2022/09/30 09:10:36;;;;;;;9.25;5.55;;;12.60;99.90;;;;;;5105549;27;38827;-57
2022/09/30 09:13:17;;;;;;;8.10;5.10;;;12.70;99.90;;;;;;5109124;27;36071;-57
2022/09/30 09:15:55;;;;;;;11.20;5.70;;;12.80;99.90;;;;;;5108857;27;35625;-57
2022/09/30 09:18:35;;;;;;;11.57;5.82;;;12.80;99.90;;;;;;5106615;27;37559;-58
2022/09/30 09:21:15;;;;;;;10.32;5.97;;;12.90;99.90;;;;;;5108782;27;36575;-57
2022/09/30 09:23:43;;;;;;;9.07;5.10;;;13.00;99.90;;;;;;5109040;27;36956;-58
2022/09/30 09:26:13;;;;;;;7.57;4.82;;;13.00;99.90;;;;;;5107147;27;36548;-58
2022/09/30 09:28:45;;;;;;;6.82;3.97;;;13.10;99.90;;;;;;5109538;27;37852;-58
2022/09/30 09:31:17;;;;;;;8.00;4.15;;;13.10;99.90;;;;;;5107742;27;38110;-58
2022/09/30 09:33:46;;;;;;;7.60;4.50;;;13.20;99.90;;;;;;5108447;27;37511;-58
2022/09/30 09:36:25;;;;;;;6.72;4.47;;;13.20;99.90;;;;;;5107901;27;36600;-58
2022/09/30 09:39:06;;;;;;;7.95;4.85;;;13.30;99.90;;;;;;5109038;27;38378;-58
2022/09/30 09:41:41;;;;;;;6.22;3.67;;;13.40;99.90;;;;;;5107528;27;39034;-58
2022/09/30 09:44:17;;;;;;;6.93;4.38;;;13.50;99.90;;;;;;5108693;27;37616;-57
2022/09/30 09:46:50;;;;;;;6.30;3.47;;;13.50;99.90;;;;;;5108685;27;36465;-58
2022/09/30 09:49:34;;;;;;;6.68;4.82;;;13.60;99.90;;;;;;5107276;27;37613;-57
2022/09/30 09:52:27;;;;;;;6.55;4.07;;;13.60;99.90;;;;;;5107773;27;37708;-57
2022/09/30 09:54:55;;;;;;;5.80;3.60;;;13.70;99.90;;;;;;5107251;27;37474;-58
2022/09/30 09:57:26;;;;;;;6.82;4.07;;;13.80;99.90;;;;;;5108667;27;37826;-57
2022/09/30 09:59:58;;;;;;;6.13;4.18;;;13.90;99.90;;;;;;5107881;27;37335;-57
2022/09/30 10:02:28;;;;;;;6.53;4.22;;;14.00;99.90;;;;;;5107168;27;38030;-57
2022/09/30 10:05:02;;;;;;;6.95;3.85;;;14.00;99.90;;;;;;5107474;27;39729;-58
2022/09/30 10:07:32;;;;;;;8.25;4.68;;;14.10;99.90;;;;;;5108780;27;37290;-58
2022/09/30 10:10:12;;;;;;;5.85;3.85;;;14.20;99.90;;;;;;5107370;27;36348;-57
2022/09/30 10:12:41;;;;;;;6.25;4.13;;;14.30;99.90;;;;;;5108520;27;36341;-57
2022/09/30 10:15:20;;;;;;;6.90;4.60;;;14.40;99.90;;;;;;5108332;27;36058;-57
2022/09/30 10:17:53;;;;;;;6.53;4.28;;;14.40;99.90;;;;;;5107172;27;36748;-58
2022/09/30 10:20:29;;;;;;;7.05;4.97;;;14.40;99.90;;;;;;5109020;27;37716;-58
2022/09/30 10:23:10;;;;;;;6.97;4.85;;;14.60;99.90;;;;;;5107345;27;37966;-58
2022/09/30 10:25:37;;;;;;;7.10;4.57;;;14.70;99.90;;;;;;5106410;27;38317;-57
2022/09/30 10:28:22;;;;;;;6.80;4.47;;;14.80;99.90;;;;;;5108021;27;35369;-58
2022/09/30 10:30:53;;;;;;;7.80;4.57;;;14.80;99.90;;;;;;5107542;27;37533;-58
2022/09/30 10:33:26;;;;;;;6.75;4.28;;;15.00;99.90;;;;;;5107016;27;36796;-58
2022/09/30 10:36:02;;;;;;;9.80;4.43;;;15.10;99.90;;;;;;5106177;27;37342;-57
2022/09/30 10:38:30;;;;;;;7.40;4.45;;;15.20;99.90;;;;;;5108581;27;36683;-57
2022/09/30 10:40:59;;;;;;;7.25;4.30;;;15.30;99.90;;;;;;5107701;27;37712;-58
2022/09/30 10:43:31;;;;;;;6.57;4.18;;;15.40;99.90;;;;;;5108481;27;36513;-57
2022/09/30 10:46:02;;;;;;;8.05;4.55;;;15.50;99.90;;;;;;5107823;27;38057;-58
2022/09/30 10:48:37;;;;;;;7.72;3.60;;;15.60;99.90;;;;;;5106453;27;36964;-58
2022/09/30 10:51:17;;;;;;;5.50;3.13;;;15.70;99.90;;;;;;5104767;27;38769;-58
2022/09/30 10:53:44;;;;;;;6.00;2.80;;;15.70;99.90;;;;;;5105988;27;38122;-58
2022/09/30 10:56:12;;;;;;;5.32;2.80;;;15.80;99.90;;;;;;5105243;27;38791;-58
2022/09/30 10:58:46;;;;;;;6.18;2.42;;;15.80;99.90;;;;;;5106387;27;36386;-58
2022/09/30 11:01:22;;;;;;;4.20;2.30;;;15.90;99.90;;;;;;5105695;27;38596;-58
2022/09/30 11:04:01;;;;;;;4.72;2.60;;;15.90;99.90;;;;;;5106006;27;37661;-58
2022/09/30 11:06:33;;;;;;;4.15;2.72;;;16.00;99.90;;;;;;5105682;27;38515;-58
2022/09/30 11:09:05;;;;;;;5.85;2.75;;;16.00;99.90;;;;;;5104911;27;37565;-58
2022/09/30 11:11:38;;;;;;;4.70;2.33;;;16.10;99.90;;;;;;5106557;27;37556;-58
2022/09/30 11:14:21;;;;;;;3.97;2.17;;;16.20;99.90;;;;;;5106046;27;37536;-58
2022/09/30 11:16:59;;;;;;;4.10;2.50;;;16.20;99.90;;;;;;5106450;27;36195;-58
2022/09/30 11:19:33;;;;;;;6.45;2.67;;;16.20;99.90;;;;;;5105512;27;36643;-58
2022/09/30 11:22:13;;;;;;;4.88;2.45;;;16.10;99.90;;;;;;5106576;27;38553;-58
2022/09/30 11:24:43;;;;;;;6.13;3.03;;;16.00;99.90;;;;;;5105917;27;39297;-58
2022/09/30 11:27:21;;;;;;;4.20;2.28;;;16.10;99.90;;;;;;5106390;27;37602;-58
2022/09/30 11:29:59;;;;;;;4.95;2.65;;;16.10;99.90;;;;;;5109721;27;36709;-58
2022/09/30 11:32:40;;;;;;;4.05;2.13;;;16.20;99.90;;;;;;5109483;27;38957;-58
2022/09/30 11:35:28;;;;;;;6.70;1.83;;;16.20;99.90;;;;;;5109151;27;37421;-58
2022/09/30 11:38:03;;;;;;;3.45;1.63;;;16.30;99.90;;;;;;5108946;27;39883;-58
2022/09/30 11:40:36;;;;;;;3.70;1.98;;;16.30;99.90;;;;;;5109578;27;36356;-58
2022/09/30 11:43:17;;;;;;;3.92;1.50;;;16.30;99.90;;;;;;5109711;27;36776;-58
2022/09/30 11:46:02;;;;;;;5.18;1.95;;;16.40;99.90;;;;;;5110337;27;38621;-58
2022/09/30 11:48:39;;;;;;;2.58;1.50;;;16.50;99.90;;;;;;5109173;27;38649;-58
2022/09/30 11:51:19;;;;;;;3.63;1.90;;;16.60;99.90;;;;;;5108418;27;35375;-58
2022/09/30 11:53:57;;;;;;;3.28;1.77;;;16.50;99.90;;;;;;5109369;27;37251;-58
2022/09/30 11:56:40;;;;;;;3.33;1.60;;;16.50;99.90;;;;;;5108960;27;37311;-58
2022/09/30 11:59:15;;;;;;;4.93;1.60;;;16.40;99.90;;;;;;5109327;27;37610;-58
2022/09/30 12:01:45;;;;;;;3.53;1.65;;;16.30;99.90;;;;;;5108651;27;37853;-58
2022/09/30 12:04:17;;;;;;;5.30;1.50;;;16.40;99.90;;;;;;5108795;27;38175;-58
2022/09/30 12:06:52;;;;;;;3.95;1.80;;;16.40;99.90;;;;;;5109196;27;38011;-58
2022/09/30 12:09:24;;;;;;;4.10;1.60;;;16.50;99.90;;;;;;5108730;27;37343;-58
2022/09/30 12:11:58;;;;;;;3.07;1.43;;;16.50;99.90;;;;;;5109089;27;37569;-58
2022/09/30 12:14:33;;;;;;;2.63;1.42;;;16.60;99.90;;;;;;5108313;27;39491;-58
2022/09/30 12:17:06;;;;;;;2.45;1.20;;;16.50;99.90;;;;;;5107315;27;38013;-58
2022/09/30 12:19:37;;;;;;;3.35;1.45;;;16.40;99.90;;;;;;5107450;27;36513;-58
2022/09/30 12:22:14;;;;;;;2.55;1.08;;;16.20;99.90;;;;;;5107998;27;36683;-58
2022/09/30 12:24:44;;;;;;;5.43;1.30;;;16.10;99.90;;;;;;5108410;27;38626;-58
2022/09/30 12:27:18;;;;;;;2.30;0.98;;;16.00;99.90;;;;;;5108728;27;36744;-58
2022/09/30 12:33:18;;;;;;;2.67;1.17;;;16.10;99.90;;;;;;5109436;27;37570;-58
2022/09/30 12:36:19;;;;;;;2.83;1.30;;;16.20;99.90;;;;;;5107304;27;36564;-58
2022/09/30 12:39:29;;;;;;;3.65;1.20;;;16.10;99.90;;;;;;5107474;27;37896;-58
2022/09/30 12:42:14;;;;;;;3.20;1.50;;;16.00;99.90;;;;;;5109275;27;37075;-58
2022/09/30 12:45:09;;;;;;;3.90;1.60;;;16.10;99.90;;;;;;5108701;27;36774;-58
2022/09/30 12:47:44;;;;;;;3.42;1.67;;;16.00;99.90;;;;;;5108112;27;38449;-58
2022/09/30 12:50:16;;;;;;;4.00;1.48;;;16.00;99.90;;;;;;5108198;27;40538;-58
2022/09/30 12:52:44;;;;;;;3.42;1.73;;;15.90;99.90;;;;;;5108800;27;37250;-58
2022/09/30 12:55:24;;;;;;;4.05;1.52;;;15.80;99.90;;;;;;5109384;27;35951;-58
2022/09/30 12:57:52;;;;;;;3.88;1.70;;;15.80;99.90;;;;;;5106894;27;38123;-58
2022/09/30 13:00:22;;;;;;;3.53;1.58;;;15.70;99.90;;;;;;5108056;27;38977;-58
2022/09/30 13:02:56;;;;;;;2.05;1.23;;;15.50;99.90;;;;;;5107804;27;37253;-58
2022/09/30 13:05:48;;;;;;;3.00;1.42;;;15.50;99.90;;;;;;5107974;27;36647;-58
2022/09/30 13:08:50;;;;;;;3.35;1.48;;;15.50;99.90;;;;;;5107947;27;37544;-58
2022/09/30 13:11:43;;;;;;;3.92;1.30;;;15.70;99.90;;;;;;5107605;27;40060;-58
2022/09/30 13:14:32;;;;;;;2.65;1.30;;;15.80;99.90;;;;;;5107280;27;37332;-58
2022/09/30 13:17:27;;;;;;;2.63;1.42;;;15.80;99.90;;;;;;5106559;27;36520;-58
2022/09/30 13:19:56;;;;;;;3.70;1.70;;;15.80;99.90;;;;;;5107811;27;37346;-58
2022/09/30 13:22:57;;;;;;;4.30;1.90;;;15.80;99.90;;;;;;5106603;27;38492;-58